createdAt,value
2019-05-22T00:04:55.779Z,13.89
2019-05-22T00:09:53.054Z,14.00
2019-05-22T00:14:51.491Z,14.04
2019-05-22T00:19:48.707Z,13.93
2019-05-22T00:24:45.781Z,13.85
2019-05-22T00:29:43.074Z,13.97
2019-05-22T00:34:40.105Z,14.00
2019-05-22T00:39:37.078Z,13.95
2019-05-22T00:44:34.385Z,13.85
2019-05-22T00:49:30.847Z,13.90
2019-05-22T00:54:27.811Z,13.83
2019-05-22T00:59:26.137Z,13.75
2019-05-22T01:04:22.712Z,13.90
2019-05-22T01:09:20.020Z,13.81
2019-05-22T01:14:17.377Z,13.78
2019-05-22T01:19:14.916Z,13.70
2019-05-22T01:24:11.790Z,13.67
2019-05-22T01:29:08.981Z,13.71
2019-05-22T01:34:06.975Z,13.75
2019-05-22T01:39:04.523Z,13.78
2019-05-22T01:44:01.582Z,13.68
2019-05-22T01:48:58.763Z,13.60
2019-05-22T01:53:56.077Z,13.60
2019-05-22T01:58:54.453Z,13.70
2019-05-22T02:03:52.569Z,13.56
2019-05-22T02:08:49.151Z,13.60
2019-05-22T02:13:46.312Z,13.53
2019-05-22T02:18:43.721Z,13.60
2019-05-22T02:23:40.573Z,13.65
2019-05-22T02:28:37.871Z,13.65
2019-05-22T02:33:35.155Z,13.62
2019-05-22T02:38:32.458Z,13.49
2019-05-22T02:43:29.439Z,13.56
2019-05-22T02:48:27.105Z,13.65
2019-05-22T02:53:24.328Z,13.39
2019-05-22T02:58:21.470Z,13.42
2019-05-22T03:03:18.349Z,13.33
2019-05-22T03:08:15.455Z,13.31
2019-05-22T03:13:13.566Z,13.39
2019-05-22T03:18:11.378Z,13.41
2019-05-22T03:23:07.978Z,13.27
2019-05-22T03:28:06.420Z,13.23
2019-05-22T03:33:04.321Z,13.30
2019-05-22T03:38:02.897Z,13.25
2019-05-22T03:42:59.700Z,13.05
2019-05-22T03:47:56.553Z,13.00
2019-05-22T03:52:53.700Z,12.97
2019-05-22T03:57:50.501Z,12.94
2019-05-22T04:02:47.635Z,12.91
2019-05-22T04:07:46.303Z,12.90
2019-05-22T04:12:43.297Z,12.91
2019-05-22T04:17:41.211Z,13.01
2019-05-22T04:22:38.172Z,12.94
2019-05-22T04:27:35.123Z,12.90
2019-05-22T04:32:32.116Z,12.86
2019-05-22T04:37:29.035Z,12.95
2019-05-22T04:42:25.709Z,12.94
2019-05-22T04:47:23.106Z,12.80
2019-05-22T04:52:21.025Z,12.68
2019-05-22T04:57:18.001Z,12.73
2019-05-22T05:02:15.253Z,12.78
2019-05-22T05:07:13.401Z,12.75
2019-05-22T05:12:10.872Z,12.70
2019-05-22T05:17:08.859Z,12.72
2019-05-22T05:22:05.848Z,12.86
2019-05-22T05:27:03.907Z,12.78
2019-05-22T05:32:00.828Z,12.80
2019-05-22T05:36:58.013Z,12.79
2019-05-22T05:41:56.575Z,12.87
2019-05-22T05:46:53.170Z,12.72
2019-05-22T05:51:50.373Z,12.93
2019-05-22T05:56:46.890Z,12.97
2019-05-22T06:01:44.146Z,12.87
2019-05-22T06:06:42.190Z,12.93
2019-05-22T06:11:38.615Z,12.90
2019-05-22T06:16:36.293Z,13.08
2019-05-22T06:21:33.758Z,12.98
2019-05-22T06:26:30.880Z,12.97
2019-05-22T06:31:28.238Z,13.18
2019-05-22T06:36:24.873Z,13.18
2019-05-22T06:41:21.974Z,13.25
2019-05-22T06:46:19.197Z,13.27
2019-05-22T06:51:19.517Z,13.19
2019-05-22T06:56:16.633Z,13.18
2019-05-22T07:01:12.976Z,13.15
2019-05-22T07:06:10.101Z,12.98
2019-05-22T07:11:06.698Z,12.86
2019-05-22T07:16:04.030Z,12.75
2019-05-22T07:21:01.996Z,12.79
2019-05-22T07:25:58.623Z,12.57
2019-05-22T07:30:55.955Z,12.60
2019-05-22T07:36:08.355Z,12.76
2019-05-22T07:40:54.044Z,12.76
2019-05-22T07:45:51.505Z,12.90
2019-05-22T07:50:49.288Z,12.90
2019-05-22T07:55:46.269Z,12.83
2019-05-22T08:00:44.404Z,12.86
2019-05-22T08:05:41.172Z,13.01
2019-05-22T08:10:38.236Z,13.04
2019-05-22T08:15:36.603Z,13.09
2019-05-22T08:20:33.893Z,13.20
2019-05-22T08:25:30.870Z,13.47
2019-05-22T08:30:27.965Z,13.60
2019-05-22T08:35:25.220Z,13.74
2019-05-22T08:40:22.719Z,13.89
2019-05-22T08:45:21.177Z,13.78
2019-05-22T08:50:17.526Z,13.90
2019-05-22T08:55:15.726Z,13.85
2019-05-22T09:00:12.569Z,13.78
2019-05-22T09:05:08.973Z,13.77
2019-05-22T09:10:06.211Z,13.72
2019-05-22T09:15:03.718Z,13.85
2019-05-22T09:20:00.635Z,13.83
2019-05-22T09:24:58.664Z,14.04
2019-05-22T09:29:55.807Z,14.07
2019-05-22T09:34:52.737Z,14.07
2019-05-22T09:39:49.290Z,14.23
2019-05-22T09:44:47.108Z,14.28
2019-05-22T09:49:43.963Z,14.14
2019-05-22T09:54:40.861Z,14.41
2019-05-22T09:59:38.715Z,14.47
2019-05-22T10:04:36.503Z,14.51
2019-05-22T10:09:34.243Z,14.99
2019-05-22T10:14:32.493Z,15.15
2019-05-22T10:19:30.459Z,15.52
2019-05-22T10:24:27.582Z,15.82
2019-05-22T10:29:25.181Z,15.75
2019-05-22T10:34:22.985Z,16.17
2019-05-22T10:39:24.715Z,17.15
2019-05-22T10:44:24.153Z,17.67
2019-05-22T10:49:21.441Z,18.20
2019-05-22T10:54:17.380Z,17.42
2019-05-22T10:59:14.325Z,17.67
2019-05-22T11:04:12.403Z,17.89
2019-05-22T11:09:12.026Z,18.22
2019-05-22T11:14:09.638Z,17.78
2019-05-22T11:19:07.212Z,17.65
2019-05-22T11:24:05.536Z,17.67
2019-05-22T11:29:04.104Z,18.28
2019-05-22T11:33:58.259Z,18.40
2019-05-22T11:38:56.464Z,18.53
2019-05-22T11:43:55.290Z,18.96
2019-05-22T11:48:53.208Z,18.96
2019-05-22T11:53:48.109Z,18.59
2019-05-22T11:58:48.641Z,19.00
2019-05-22T12:03:44.158Z,18.99
2019-05-22T12:08:38.532Z,18.70
2019-05-22T12:13:37.516Z,19.00
2019-05-22T12:18:34.836Z,19.41
2019-05-22T12:23:31.903Z,19.36
2019-05-22T12:28:30.133Z,19.89
2019-05-22T12:33:28.044Z,19.99
2019-05-22T12:38:27.186Z,19.86
2019-05-22T12:43:25.158Z,20.60
2019-05-22T12:48:19.766Z,20.09
2019-05-22T12:53:17.749Z,20.29
2019-05-22T12:58:15.503Z,20.88
2019-05-22T13:03:13.061Z,20.25
2019-05-22T13:08:10.740Z,20.31
2019-05-22T13:13:07.847Z,20.16
2019-05-22T13:18:05.159Z,20.74
2019-05-22T13:23:01.336Z,20.32
2019-05-22T13:27:58.609Z,20.34
2019-05-22T13:32:54.902Z,20.22
2019-05-22T13:37:52.432Z,21.22
2019-05-22T13:42:50.687Z,21.79
2019-05-22T13:47:48.387Z,21.70
2019-05-22T13:52:46.982Z,20.99
2019-05-22T13:57:44.356Z,20.43
2019-05-22T14:02:40.823Z,20.02
2019-05-22T14:07:36.676Z,20.18
2019-05-22T14:12:33.297Z,20.06
2019-05-22T14:17:29.815Z,20.07
2019-05-22T14:22:26.126Z,19.74
2019-05-22T14:27:22.453Z,19.64
2019-05-22T14:32:18.534Z,19.67
2019-05-22T14:37:15.637Z,19.71
2019-05-22T14:42:12.112Z,19.95
2019-05-22T14:47:14.676Z,19.86
2019-05-22T14:52:10.213Z,19.89
2019-05-22T14:57:07.297Z,19.82
2019-05-22T15:02:04.631Z,20.04
2019-05-22T15:07:01.836Z,19.96
2019-05-22T15:11:58.795Z,19.71
2019-05-22T15:16:55.978Z,19.52
2019-05-22T15:21:53.227Z,19.52
2019-05-22T15:26:49.881Z,19.37
2019-05-22T15:31:46.662Z,19.51
2019-05-22T15:36:43.186Z,19.54
2019-05-22T15:41:40.773Z,19.77
2019-05-22T15:46:37.364Z,19.88
2019-05-22T15:51:35.183Z,19.70
2019-05-22T15:56:33.393Z,19.82
2019-05-22T16:01:29.261Z,19.69
2019-05-22T16:06:27.685Z,19.69
2019-05-22T16:11:24.251Z,19.64
2019-05-22T16:16:20.415Z,19.52
2019-05-22T16:21:17.672Z,19.54
2019-05-22T16:26:15.194Z,19.52
2019-05-22T16:31:13.358Z,19.44
2019-05-22T16:36:10.985Z,19.37
2019-05-22T16:41:08.152Z,19.34
2019-05-22T16:46:05.230Z,19.37
2019-05-22T16:51:02.897Z,19.44
2019-05-22T16:55:59.832Z,19.39
2019-05-22T17:00:57.370Z,19.33
2019-05-22T17:05:54.057Z,19.11
2019-05-22T17:10:51.523Z,19.12
2019-05-22T17:15:48.367Z,19.11
2019-05-22T17:20:45.421Z,19.08
2019-05-22T17:25:42.709Z,19.12
2019-05-22T17:30:39.996Z,18.99
2019-05-22T17:35:36.611Z,19.00
2019-05-22T17:40:33.871Z,18.92
2019-05-22T17:45:30.918Z,18.92
2019-05-22T17:50:27.920Z,18.80
2019-05-22T17:55:24.926Z,18.73
2019-05-22T18:00:22.037Z,18.68
2019-05-22T18:05:19.132Z,18.62
2019-05-22T18:10:16.637Z,18.45
2019-05-22T18:15:13.420Z,18.35
2019-05-22T18:20:10.697Z,18.35
2019-05-22T18:25:07.834Z,18.22
2019-05-22T18:30:04.854Z,18.11
2019-05-22T18:35:02.683Z,18.04
2019-05-22T18:40:00.220Z,17.90
2019-05-22T18:44:57.205Z,17.98
2019-05-22T18:49:54.105Z,17.74
2019-05-22T18:54:51.259Z,17.71
2019-05-22T18:59:48.273Z,17.57
2019-05-22T19:04:46.600Z,17.48
2019-05-22T19:09:43.550Z,17.42
2019-05-22T19:14:40.328Z,17.30
2019-05-22T19:19:38.405Z,17.16
2019-05-22T19:24:36.371Z,17.05
2019-05-22T19:29:33.482Z,17.01
2019-05-22T19:34:29.862Z,16.94
2019-05-22T19:39:26.814Z,16.79
2019-05-22T19:44:24.630Z,16.79
2019-05-22T19:49:21.781Z,16.68
2019-05-22T19:54:19.566Z,16.64
2019-05-22T19:59:17.988Z,16.58
2019-05-22T20:04:15.517Z,16.51
2019-05-22T20:09:13.526Z,16.38
2019-05-22T20:14:10.387Z,16.31
2019-05-22T20:19:07.065Z,16.20
2019-05-22T20:24:04.918Z,16.01
2019-05-22T20:29:02.586Z,15.91
2019-05-22T20:33:59.600Z,15.76
2019-05-22T20:38:55.661Z,15.76
2019-05-22T20:43:51.481Z,15.59
2019-05-22T20:48:47.535Z,15.54
2019-05-22T20:53:54.060Z,15.46
2019-05-22T20:58:46.009Z,15.39
2019-05-22T21:03:42.951Z,15.33
2019-05-22T21:08:41.191Z,15.31
2019-05-22T21:13:38.113Z,15.33
2019-05-22T21:18:34.972Z,15.28
2019-05-22T21:23:31.812Z,15.07
2019-05-22T21:28:28.677Z,15.10
2019-05-22T21:33:27.018Z,15.03
2019-05-22T21:38:23.668Z,14.96
2019-05-22T21:43:21.646Z,14.96
2019-05-22T21:48:18.610Z,14.85
2019-05-22T21:53:15.545Z,14.91
2019-05-22T21:58:13.760Z,14.82
2019-05-22T22:03:11.885Z,14.72
2019-05-22T22:08:09.093Z,14.84
2019-05-22T22:13:07.792Z,14.77
2019-05-22T22:18:04.479Z,14.77
2019-05-22T22:23:02.512Z,14.60
2019-05-22T22:27:59.239Z,14.58
2019-05-22T22:32:56.558Z,14.40
2019-05-22T22:37:54.085Z,14.36
2019-05-22T22:42:50.491Z,14.14
2019-05-22T22:47:47.691Z,14.18
2019-05-22T22:52:44.556Z,14.04
2019-05-22T22:57:41.866Z,13.86
2019-05-22T23:02:39.865Z,13.74
2019-05-22T23:07:36.565Z,13.74
2019-05-22T23:12:33.519Z,13.67
2019-05-22T23:17:30.351Z,13.56
2019-05-22T23:22:27.743Z,13.68
2019-05-22T23:27:25.016Z,13.59
2019-05-22T23:32:20.620Z,13.59
2019-05-22T23:37:18.900Z,13.62
2019-05-22T23:42:14.901Z,13.60
2019-05-22T23:47:12.324Z,13.33
2019-05-22T23:52:08.967Z,13.30
2019-05-22T23:57:06.446Z,13.30
